sensor_id;sensor_type;location;lat;lon;timestamp;temperature;humidity
66582;SHT31;53438;48.898;2.308;2023-07-28T03:02:17;20.08;82.07
66582;SHT31;53438;48.898;2.308;2023-07-28T03:04:42;20.14;82.02
66582;SHT31;53438;48.898;2.308;2023-07-28T03:07:07;20.14;81.85
66582;SHT31;53438;48.898;2.308;2023-07-28T03:09:33;20.11;81.81
66582;SHT31;53438;48.898;2.308;2023-07-28T03:11:58;20.14;81.91
66582;SHT31;53438;48.898;2.308;2023-07-28T03:14:23;20.11;81.92
66582;SHT31;53438;48.898;2.308;2023-07-28T03:16:49;20.08;82.07
66582;SHT31;53438;48.898;2.308;2023-07-28T03:19:14;19.97;82.48
66582;SHT31;53438;48.898;2.308;2023-07-28T03:21:39;19.99;82.48
66582;SHT31;53438;48.898;2.308;2023-07-28T03:24:05;19.95;82.62
66582;SHT31;53438;48.898;2.308;2023-07-28T03:26:30;19.97;82.63
66582;SHT31;53438;48.898;2.308;2023-07-28T03:28:55;20.02;82.59
66582;SHT31;53438;48.898;2.308;2023-07-28T03:31:21;19.95;82.78
66582;SHT31;53438;48.898;2.308;2023-07-28T03:33:47;19.97;82.70
66582;SHT31;53438;48.898;2.308;2023-07-28T03:36:12;20.01;82.58
66582;SHT31;53438;48.898;2.308;2023-07-28T03:38:38;19.97;82.72
66582;SHT31;53438;48.898;2.308;2023-07-28T03:41:03;20.02;82.61
66582;SHT31;53438;48.898;2.308;2023-07-28T03:43:28;20.07;82.56
66582;SHT31;53438;48.898;2.308;2023-07-28T03:45:54;20.02;82.72
66582;SHT31;53438;48.898;2.308;2023-07-28T03:48:19;20.02;82.79
66582;SHT31;53438;48.898;2.308;2023-07-28T03:50:44;19.99;82.84
66582;SHT31;53438;48.898;2.308;2023-07-28T03:53:10;20.01;82.79
66582;SHT31;53438;48.898;2.308;2023-07-28T03:55:35;20.04;82.60
66582;SHT31;53438;48.898;2.308;2023-07-28T03:58:00;20.05;82.79
66582;SHT31;53438;48.898;2.308;2023-07-28T04:00:26;20.07;82.75
66582;SHT31;53438;48.898;2.308;2023-07-28T04:02:51;19.97;83.51
66582;SHT31;53438;48.898;2.308;2023-07-28T04:05:17;19.94;83.97
66582;SHT31;53438;48.898;2.308;2023-07-28T04:07:42;19.92;84.32
66582;SHT31;53438;48.898;2.308;2023-07-28T04:10:07;19.98;84.43
66582;SHT31;53438;48.898;2.308;2023-07-28T04:12:33;19.92;84.60
66582;SHT31;53438;48.898;2.308;2023-07-28T04:14:58;19.95;84.63
66582;SHT31;53438;48.898;2.308;2023-07-28T04:17:23;19.91;84.92
66582;SHT31;53438;48.898;2.308;2023-07-28T04:19:49;19.98;85.16
66582;SHT31;53438;48.898;2.308;2023-07-28T04:22:15;19.88;85.04
66582;SHT31;53438;48.898;2.308;2023-07-28T04:24:46;19.84;85.47
66582;SHT31;53438;48.898;2.308;2023-07-28T04:27:11;19.89;85.30
66582;SHT31;53438;48.898;2.308;2023-07-28T04:29:36;19.75;85.87
66582;SHT31;53438;48.898;2.308;2023-07-28T04:32:02;19.81;86.15
66582;SHT31;53438;48.898;2.308;2023-07-28T04:34:27;19.74;85.95
66582;SHT31;53438;48.898;2.308;2023-07-28T04:36:53;19.81;85.93
66582;SHT31;53438;48.898;2.308;2023-07-28T04:39:18;19.92;85.67
66582;SHT31;53438;48.898;2.308;2023-07-28T04:41:43;19.79;86.02
66582;SHT31;53438;48.898;2.308;2023-07-28T04:44:08;19.84;85.92
66582;SHT31;53438;48.898;2.308;2023-07-28T04:46:34;19.79;85.81
66582;SHT31;53438;48.898;2.308;2023-07-28T04:48:59;19.79;86.14
66582;SHT31;53438;48.898;2.308;2023-07-28T04:51:24;19.71;86.47
66582;SHT31;53438;48.898;2.308;2023-07-28T04:53:50;19.78;86.44
66582;SHT31;53438;48.898;2.308;2023-07-28T04:56:15;19.81;86.34
66582;SHT31;53438;48.898;2.308;2023-07-28T04:58:40;19.79;86.47
66582;SHT31;53438;48.898;2.308;2023-07-28T05:01:06;19.77;86.18
66582;SHT31;53438;48.898;2.308;2023-07-28T05:03:34;19.77;86.30
66582;SHT31;53438;48.898;2.308;2023-07-28T05:05:59;19.89;86.04
66582;SHT31;53438;48.898;2.308;2023-07-28T05:08:24;19.85;86.05
66582;SHT31;53438;48.898;2.308;2023-07-28T05:10:50;19.91;85.92
66582;SHT31;53438;48.898;2.308;2023-07-28T05:13:15;19.82;86.39
66582;SHT31;53438;48.898;2.308;2023-07-28T05:15:40;19.89;85.90
66582;SHT31;53438;48.898;2.308;2023-07-28T05:18:06;19.88;85.98
66582;SHT31;53438;48.898;2.308;2023-07-28T05:20:31;19.89;85.81
66582;SHT31;53438;48.898;2.308;2023-07-28T05:22:56;19.88;85.84
66582;SHT31;53438;48.898;2.308;2023-07-28T05:25:22;19.81;85.96
66582;SHT31;53438;48.898;2.308;2023-07-28T05:27:47;19.84;86.10
66582;SHT31;53438;48.898;2.308;2023-07-28T05:30:12;19.75;85.98
66582;SHT31;53438;48.898;2.308;2023-07-28T05:32:38;19.78;86.09
66582;SHT31;53438;48.898;2.308;2023-07-28T05:35:03;19.82;86.25
66582;SHT31;53438;48.898;2.308;2023-07-28T05:37:29;19.84;86.08
66582;SHT31;53438;48.898;2.308;2023-07-28T05:39:54;19.82;85.95
66582;SHT31;53438;48.898;2.308;2023-07-28T05:42:20;19.88;86.07
66582;SHT31;53438;48.898;2.308;2023-07-28T05:44:45;19.84;86.15
66582;SHT31;53438;48.898;2.308;2023-07-28T05:47:10;19.85;86.22
66582;SHT31;53438;48.898;2.308;2023-07-28T05:49:36;19.84;85.98
66582;SHT31;53438;48.898;2.308;2023-07-28T05:52:01;19.84;85.89
66582;SHT31;53438;48.898;2.308;2023-07-28T05:54:27;19.77;86.09
66582;SHT31;53438;48.898;2.308;2023-07-28T05:56:52;19.79;86.18
66582;SHT31;53438;48.898;2.308;2023-07-28T05:59:17;19.84;86.28
66582;SHT31;53438;48.898;2.308;2023-07-28T06:01:43;19.81;86.23
66582;SHT31;53438;48.898;2.308;2023-07-28T06:04:08;19.78;86.25
66582;SHT31;53438;48.898;2.308;2023-07-28T06:06:33;19.79;86.21
66582;SHT31;53438;48.898;2.308;2023-07-28T06:08:58;19.88;86.14
66582;SHT31;53438;48.898;2.308;2023-07-28T06:11:24;19.87;86.11
66582;SHT31;53438;48.898;2.308;2023-07-28T06:13:49;19.87;85.87
66582;SHT31;53438;48.898;2.308;2023-07-28T06:16:15;19.95;85.99
66582;SHT31;53438;48.898;2.308;2023-07-28T06:18:40;19.89;86.08
66582;SHT31;53438;48.898;2.308;2023-07-28T06:21:06;19.92;85.96
66582;SHT31;53438;48.898;2.308;2023-07-28T06:23:31;19.91;85.96
66582;SHT31;53438;48.898;2.308;2023-07-28T06:25:56;19.88;86.13
66582;SHT31;53438;48.898;2.308;2023-07-28T06:28:22;19.85;86.28
66582;SHT31;53438;48.898;2.308;2023-07-28T06:30:47;19.89;86.11
66582;SHT31;53438;48.898;2.308;2023-07-28T06:33:18;19.91;86.28
66582;SHT31;53438;48.898;2.308;2023-07-28T06:35:43;19.94;86.19
66582;SHT31;53438;48.898;2.308;2023-07-28T06:38:08;20.01;86.05
66582;SHT31;53438;48.898;2.308;2023-07-28T06:40:34;19.97;86.06
66582;SHT31;53438;48.898;2.308;2023-07-28T06:42:59;19.99;85.92
66582;SHT31;53438;48.898;2.308;2023-07-28T06:45:25;20.09;85.65
66582;SHT31;53438;48.898;2.308;2023-07-28T06:47:51;20.04;85.77
66582;SHT31;53438;48.898;2.308;2023-07-28T06:50:17;20.04;85.80
66582;SHT31;53438;48.898;2.308;2023-07-28T06:52:42;20.08;85.83
66582;SHT31;53438;48.898;2.308;2023-07-28T06:55:08;20.09;85.83
66582;SHT31;53438;48.898;2.308;2023-07-28T06:57:33;20.08;85.86
66582;SHT31;53438;48.898;2.308;2023-07-28T07:00:00;20.02;86.03
66582;SHT31;53438;48.898;2.308;2023-07-28T07:02:25;20.04;86.04
66582;SHT31;53438;48.898;2.308;2023-07-28T07:04:51;20.11;85.98
66582;SHT31;53438;48.898;2.308;2023-07-28T07:07:16;20.09;85.79
66582;SHT31;53438;48.898;2.308;2023-07-28T07:09:41;20.12;85.91
66582;SHT31;53438;48.898;2.308;2023-07-28T07:12:08;20.11;85.90
66582;SHT31;53438;48.898;2.308;2023-07-28T07:14:33;20.09;86.26
66582;SHT31;53438;48.898;2.308;2023-07-28T07:16:59;20.11;86.25
66582;SHT31;53438;48.898;2.308;2023-07-28T07:19:24;20.11;86.78
66582;SHT31;53438;48.898;2.308;2023-07-28T07:21:50;20.11;86.80
66582;SHT31;53438;48.898;2.308;2023-07-28T07:24:16;19.94;87.46
66582;SHT31;53438;48.898;2.308;2023-07-28T07:26:41;19.94;87.75
66582;SHT31;53438;48.898;2.308;2023-07-28T07:29:07;19.94;88.05
66582;SHT31;53438;48.898;2.308;2023-07-28T07:31:33;19.98;88.12
66582;SHT31;53438;48.898;2.308;2023-07-28T07:33:59;19.92;88.65
66582;SHT31;53438;48.898;2.308;2023-07-28T07:36:25;19.94;89.26
66582;SHT31;53438;48.898;2.308;2023-07-28T07:38:50;19.94;89.41
66582;SHT31;53438;48.898;2.308;2023-07-28T07:41:16;19.92;89.94
66582;SHT31;53438;48.898;2.308;2023-07-28T07:43:44;19.95;89.53
66582;SHT31;53438;48.898;2.308;2023-07-28T07:46:10;19.89;90.16
66582;SHT31;53438;48.898;2.308;2023-07-28T07:48:35;19.94;89.67
66582;SHT31;53438;48.898;2.308;2023-07-28T07:51:00;19.92;90.12
66582;SHT31;53438;48.898;2.308;2023-07-28T07:53:26;19.88;90.43
66582;SHT31;53438;48.898;2.308;2023-07-28T07:55:51;19.95;89.78
66582;SHT31;53438;48.898;2.308;2023-07-28T07:58:16;19.98;89.90
66582;SHT31;53438;48.898;2.308;2023-07-28T08:00:42;19.95;89.96
66582;SHT31;53438;48.898;2.308;2023-07-28T08:03:10;19.98;89.72
66582;SHT31;53438;48.898;2.308;2023-07-28T08:05:36;20.01;89.72
66582;SHT31;53438;48.898;2.308;2023-07-28T08:08:02;20.02;89.69
66582;SHT31;53438;48.898;2.308;2023-07-28T08:10:28;20.02;90.09
66582;SHT31;53438;48.898;2.308;2023-07-28T08:12:54;19.95;89.95
66582;SHT31;53438;48.898;2.308;2023-07-28T08:15:20;19.94;89.82
66582;SHT31;53438;48.898;2.308;2023-07-28T08:17:45;19.99;89.85
66582;SHT31;53438;48.898;2.308;2023-07-28T08:20:12;19.99;89.84
66582;SHT31;53438;48.898;2.308;2023-07-28T08:22:37;20.07;89.77
66582;SHT31;53438;48.898;2.308;2023-07-28T08:25:04;20.04;89.88
66582;SHT31;53438;48.898;2.308;2023-07-28T08:27:29;20.11;89.39
66582;SHT31;53438;48.898;2.308;2023-07-28T08:29:54;20.18;89.19
66582;SHT31;53438;48.898;2.308;2023-07-28T08:32:20;20.19;89.12
66582;SHT31;53438;48.898;2.308;2023-07-28T08:34:47;20.24;89.07
66582;SHT31;53438;48.898;2.308;2023-07-28T08:37:12;20.22;89.09
66582;SHT31;53438;48.898;2.308;2023-07-28T08:39:38;20.24;88.68
66582;SHT31;53438;48.898;2.308;2023-07-28T08:42:04;20.28;88.49
66582;SHT31;53438;48.898;2.308;2023-07-28T08:44:33;20.30;88.74
66582;SHT31;53438;48.898;2.308;2023-07-28T08:47:03;20.36;88.51
66582;SHT31;53438;48.898;2.308;2023-07-28T08:49:32;20.33;88.65
66582;SHT31;53438;48.898;2.308;2023-07-28T08:52:00;20.37;88.83
66582;SHT31;53438;48.898;2.308;2023-07-28T08:54:27;20.45;88.36
66582;SHT31;53438;48.898;2.308;2023-07-28T08:56:53;20.50;88.43
66582;SHT31;53438;48.898;2.308;2023-07-28T08:59:25;20.55;88.19
66582;SHT31;53438;48.898;2.308;2023-07-28T09:01:56;20.60;88.15
66582;SHT31;53438;48.898;2.308;2023-07-28T09:04:23;20.69;88.11
66582;SHT31;53438;48.898;2.308;2023-07-28T09:06:50;20.70;87.76
66582;SHT31;53438;48.898;2.308;2023-07-28T09:09:21;20.72;87.38
66582;SHT31;53438;48.898;2.308;2023-07-28T09:11:52;20.73;87.28
66582;SHT31;53438;48.898;2.308;2023-07-28T09:14:19;20.70;86.73
66582;SHT31;53438;48.898;2.308;2023-07-28T09:16:45;20.72;86.96
66582;SHT31;53438;48.898;2.308;2023-07-28T09:19:11;20.73;87.01
66582;SHT31;53438;48.898;2.308;2023-07-28T09:21:42;20.79;87.08
66582;SHT31;53438;48.898;2.308;2023-07-28T09:24:09;20.80;86.93
66582;SHT31;53438;48.898;2.308;2023-07-28T09:26:40;20.81;86.44
66582;SHT31;53438;48.898;2.308;2023-07-28T09:31:41;20.84;86.52
66582;SHT31;53438;48.898;2.308;2023-07-28T09:34:07;20.84;86.50
66582;SHT31;53438;48.898;2.308;2023-07-28T09:36:34;20.88;86.62
66582;SHT31;53438;48.898;2.308;2023-07-28T09:39:01;20.91;86.86
66582;SHT31;53438;48.898;2.308;2023-07-28T09:41:29;20.90;87.17
66582;SHT31;53438;48.898;2.308;2023-07-28T09:43:55;20.94;87.33
66582;SHT31;53438;48.898;2.308;2023-07-28T09:46:22;21.04;87.22
66582;SHT31;53438;48.898;2.308;2023-07-28T09:48:50;21.07;87.20
66582;SHT31;53438;48.898;2.308;2023-07-28T09:51:19;21.11;87.28
66582;SHT31;53438;48.898;2.308;2023-07-28T09:53:49;21.17;87.16
66582;SHT31;53438;48.898;2.308;2023-07-28T09:56:19;21.11;86.88
66582;SHT31;53438;48.898;2.308;2023-07-28T09:58:51;21.20;86.38
66582;SHT31;53438;48.898;2.308;2023-07-28T10:01:18;21.23;86.51
66582;SHT31;53438;48.898;2.308;2023-07-28T10:03:45;21.24;86.69
66582;SHT31;53438;48.898;2.308;2023-07-28T10:06:10;21.27;86.57
66582;SHT31;53438;48.898;2.308;2023-07-28T10:08:37;21.30;86.50
66582;SHT31;53438;48.898;2.308;2023-07-28T10:11:03;21.30;86.43
66582;SHT31;53438;48.898;2.308;2023-07-28T10:13:39;21.34;86.30
66582;SHT31;53438;48.898;2.308;2023-07-28T10:16:05;21.38;86.43
66582;SHT31;53438;48.898;2.308;2023-07-28T10:18:30;21.42;85.65
66582;SHT31;53438;48.898;2.308;2023-07-28T10:21:04;21.55;85.68
66582;SHT31;53438;48.898;2.308;2023-07-28T10:23:34;21.66;84.66
66582;SHT31;53438;48.898;2.308;2023-07-28T10:26:00;21.73;84.72
66582;SHT31;53438;48.898;2.308;2023-07-28T10:28:30;21.85;84.63
66582;SHT31;53438;48.898;2.308;2023-07-28T10:30:57;21.95;84.03
66582;SHT31;53438;48.898;2.308;2023-07-28T10:33:30;22.07;84.14
66582;SHT31;53438;48.898;2.308;2023-07-28T10:35:57;22.13;83.91
66582;SHT31;53438;48.898;2.308;2023-07-28T10:38:30;22.10;83.30
66582;SHT31;53438;48.898;2.308;2023-07-28T10:41:07;22.04;82.68
66582;SHT31;53438;48.898;2.308;2023-07-28T10:43:33;22.07;82.99
66582;SHT31;53438;48.898;2.308;2023-07-28T10:45:59;22.17;82.99
66582;SHT31;53438;48.898;2.308;2023-07-28T10:48:25;22.20;82.96
66582;SHT31;53438;48.898;2.308;2023-07-28T10:50:50;22.21;82.63
66582;SHT31;53438;48.898;2.308;2023-07-28T10:53:15;22.14;82.29
66582;SHT31;53438;48.898;2.308;2023-07-28T10:55:42;22.13;82.86
66582;SHT31;53438;48.898;2.308;2023-07-28T10:58:09;22.16;82.92
66582;SHT31;53438;48.898;2.308;2023-07-28T11:00:34;22.14;83.06
66582;SHT31;53438;48.898;2.308;2023-07-28T11:02:59;22.17;83.22
66582;SHT31;53438;48.898;2.308;2023-07-28T11:05:28;22.16;83.27
66582;SHT31;53438;48.898;2.308;2023-07-28T11:07:57;22.12;83.56
66582;SHT31;53438;48.898;2.308;2023-07-28T11:10:24;22.10;83.63
66582;SHT31;53438;48.898;2.308;2023-07-28T11:12:51;22.10;83.88
66582;SHT31;53438;48.898;2.308;2023-07-28T11:15:18;22.24;83.65
66582;SHT31;53438;48.898;2.308;2023-07-28T11:17:49;22.29;83.23
66582;SHT31;53438;48.898;2.308;2023-07-28T11:20:25;22.30;83.08
66582;SHT31;53438;48.898;2.308;2023-07-28T11:22:59;22.34;83.59
66582;SHT31;53438;48.898;2.308;2023-07-28T11:25:26;22.23;83.74
66582;SHT31;53438;48.898;2.308;2023-07-28T11:27:53;22.20;84.62
66582;SHT31;53438;48.898;2.308;2023-07-28T11:30:19;22.20;84.98
66582;SHT31;53438;48.898;2.308;2023-07-28T11:32:49;22.18;84.85
66582;SHT31;53438;48.898;2.308;2023-07-28T11:35:18;22.40;84.58
66582;SHT31;53438;48.898;2.308;2023-07-28T11:37:46;22.51;85.16
66582;SHT31;53438;48.898;2.308;2023-07-28T11:40:14;22.72;84.51
66582;SHT31;53438;48.898;2.308;2023-07-28T11:45:08;22.76;83.94
66582;SHT31;53438;48.898;2.308;2023-07-28T11:47:35;22.76;83.66
66582;SHT31;53438;48.898;2.308;2023-07-28T11:50:00;22.85;82.80
66582;SHT31;53438;48.898;2.308;2023-07-28T11:52:32;22.94;83.00
66582;SHT31;53438;48.898;2.308;2023-07-28T11:55:01;22.94;82.68
66582;SHT31;53438;48.898;2.308;2023-07-28T11:57:29;22.96;82.56
66582;SHT31;53438;48.898;2.308;2023-07-28T11:59:56;23.02;82.58
66582;SHT31;53438;48.898;2.308;2023-07-28T12:02:29;23.05;82.11
66582;SHT31;53438;48.898;2.308;2023-07-28T12:04:55;23.06;82.09
66582;SHT31;53438;48.898;2.308;2023-07-28T12:07:31;23.03;81.51
66582;SHT31;53438;48.898;2.308;2023-07-28T12:10:02;23.16;80.57
66582;SHT31;53438;48.898;2.308;2023-07-28T12:12:29;23.12;80.96
66582;SHT31;53438;48.898;2.308;2023-07-28T12:14:56;23.03;80.22
66582;SHT31;53438;48.898;2.308;2023-07-28T12:17:25;22.95;80.29
66582;SHT31;53438;48.898;2.308;2023-07-28T12:20:07;23.03;80.54
66582;SHT31;53438;48.898;2.308;2023-07-28T12:22:40;23.05;80.77
66582;SHT31;53438;48.898;2.308;2023-07-28T12:25:06;23.16;80.93
66582;SHT31;53438;48.898;2.308;2023-07-28T12:27:32;23.32;79.69
66582;SHT31;53438;48.898;2.308;2023-07-28T12:29:57;23.45;79.43
66582;SHT31;53438;48.898;2.308;2023-07-28T12:32:23;23.39;80.00
66582;SHT31;53438;48.898;2.308;2023-07-28T12:34:49;23.40;79.82
66582;SHT31;53438;48.898;2.308;2023-07-28T12:37:15;23.36;79.97
66582;SHT31;53438;48.898;2.308;2023-07-28T12:39:41;23.38;79.09
66582;SHT31;53438;48.898;2.308;2023-07-28T12:42:07;23.36;79.25
66582;SHT31;53438;48.898;2.308;2023-07-28T12:44:33;23.27;80.03
66582;SHT31;53438;48.898;2.308;2023-07-28T12:46:58;23.20;80.55
66582;SHT31;53438;48.898;2.308;2023-07-28T12:49:24;23.12;80.90
66582;SHT31;53438;48.898;2.308;2023-07-28T12:51:49;23.11;81.89
66582;SHT31;53438;48.898;2.308;2023-07-28T12:54:15;23.12;82.64
66582;SHT31;53438;48.898;2.308;2023-07-28T12:56:40;23.18;83.21
66582;SHT31;53438;48.898;2.308;2023-07-28T12:59:06;23.33;83.20
66582;SHT31;53438;48.898;2.308;2023-07-28T13:01:31;23.43;81.13
66582;SHT31;53438;48.898;2.308;2023-07-28T13:03:56;23.52;81.79
66582;SHT31;53438;48.898;2.308;2023-07-28T13:06:22;23.64;81.57
66582;SHT31;53438;48.898;2.308;2023-07-28T13:08:47;23.80;80.73
66582;SHT31;53438;48.898;2.308;2023-07-28T13:11:12;23.85;80.35
66582;SHT31;53438;48.898;2.308;2023-07-28T13:13:40;23.85;80.41
66582;SHT31;53438;48.898;2.308;2023-07-28T13:16:05;23.91;79.50
66582;SHT31;53438;48.898;2.308;2023-07-28T13:18:31;24.08;78.63
66582;SHT31;53438;48.898;2.308;2023-07-28T13:20:58;24.02;79.58
66582;SHT31;53438;48.898;2.308;2023-07-28T13:23:23;24.01;79.63
66582;SHT31;53438;48.898;2.308;2023-07-28T13:25:49;24.10;79.34
66582;SHT31;53438;48.898;2.308;2023-07-28T13:28:14;24.28;77.62
66582;SHT31;53438;48.898;2.308;2023-07-28T13:30:39;24.38;77.65
66582;SHT31;53438;48.898;2.308;2023-07-28T13:33:06;24.38;77.90
66582;SHT31;53438;48.898;2.308;2023-07-28T13:35:32;24.31;76.39
66582;SHT31;53438;48.898;2.308;2023-07-28T13:37:57;24.21;77.27
66582;SHT31;53438;48.898;2.308;2023-07-28T13:40:22;24.24;77.56
66582;SHT31;53438;48.898;2.308;2023-07-28T13:42:48;24.04;76.81
66582;SHT31;53438;48.898;2.308;2023-07-28T13:45:14;23.93;76.43
66582;SHT31;53438;48.898;2.308;2023-07-28T13:47:40;23.83;76.42
66582;SHT31;53438;48.898;2.308;2023-07-28T13:50:05;23.73;77.39
66582;SHT31;53438;48.898;2.308;2023-07-28T13:52:32;23.63;80.00
66582;SHT31;53438;48.898;2.308;2023-07-28T13:54:57;23.56;80.78
66582;SHT31;53438;48.898;2.308;2023-07-28T13:57:23;23.47;81.32
66582;SHT31;53438;48.898;2.308;2023-07-28T13:59:49;23.43;81.57
66582;SHT31;53438;48.898;2.308;2023-07-28T14:02:16;23.42;81.54
66582;SHT31;53438;48.898;2.308;2023-07-28T14:04:42;23.42;81.51
66582;SHT31;53438;48.898;2.308;2023-07-28T14:07:07;23.39;81.07
66582;SHT31;53438;48.898;2.308;2023-07-28T14:09:33;23.40;81.35
66582;SHT31;53438;48.898;2.308;2023-07-28T14:11:58;23.42;81.62
66582;SHT31;53438;48.898;2.308;2023-07-28T14:14:24;23.43;81.60
66582;SHT31;53438;48.898;2.308;2023-07-28T14:16:49;23.39;81.30
66582;SHT31;53438;48.898;2.308;2023-07-28T14:19:14;23.39;81.36
66582;SHT31;53438;48.898;2.308;2023-07-28T14:21:40;23.40;81.21
66582;SHT31;53438;48.898;2.308;2023-07-28T14:24:05;23.52;80.40
66582;SHT31;53438;48.898;2.308;2023-07-28T14:26:31;22.90;85.73
66582;SHT31;53438;48.898;2.308;2023-07-28T14:28:56;21.46;94.79
66582;SHT31;53438;48.898;2.308;2023-07-28T14:31:22;21.69;92.15
66582;SHT31;53438;48.898;2.308;2023-07-28T14:33:47;21.89;91.66
66582;SHT31;53438;48.898;2.308;2023-07-28T14:36:12;21.90;88.91
66582;SHT31;53438;48.898;2.308;2023-07-28T14:38:38;22.02;89.43
66582;SHT31;53438;48.898;2.308;2023-07-28T14:41:04;22.12;88.57
66582;SHT31;53438;48.898;2.308;2023-07-28T14:43:29;22.14;87.68
66582;SHT31;53438;48.898;2.308;2023-07-28T14:45:55;22.20;84.93
66582;SHT31;53438;48.898;2.308;2023-07-28T14:48:20;22.29;86.48
66582;SHT31;53438;48.898;2.308;2023-07-28T14:50:46;22.30;85.28
66582;SHT31;53438;48.898;2.308;2023-07-28T14:53:34;22.16;83.74
66582;SHT31;53438;48.898;2.308;2023-07-28T14:56:00;22.00;86.74
66582;SHT31;53438;48.898;2.308;2023-07-28T14:58:27;21.81;86.42
66582;SHT31;53438;48.898;2.308;2023-07-28T15:00:52;21.92;89.79
66582;SHT31;53438;48.898;2.308;2023-07-28T15:03:17;21.93;88.73
66582;SHT31;53438;48.898;2.308;2023-07-28T15:05:43;21.93;88.95
66582;SHT31;53438;48.898;2.308;2023-07-28T15:08:08;21.99;88.62
66582;SHT31;53438;48.898;2.308;2023-07-28T15:10:34;22.04;88.27
66582;SHT31;53438;48.898;2.308;2023-07-28T15:12:59;22.06;88.06
66582;SHT31;53438;48.898;2.308;2023-07-28T15:15:24;22.07;87.78
66582;SHT31;53438;48.898;2.308;2023-07-28T15:17:50;22.04;87.69
66582;SHT31;53438;48.898;2.308;2023-07-28T15:20:15;22.09;87.52
66582;SHT31;53438;48.898;2.308;2023-07-28T15:22:45;22.07;87.41
66582;SHT31;53438;48.898;2.308;2023-07-28T15:25:12;22.03;87.60
66582;SHT31;53438;48.898;2.308;2023-07-28T15:27:40;22.04;87.91
66582;SHT31;53438;48.898;2.308;2023-07-28T15:30:06;22.04;87.37
66582;SHT31;53438;48.898;2.308;2023-07-28T15:32:32;22.06;87.16
66582;SHT31;53438;48.898;2.308;2023-07-28T15:34:57;22.07;86.76
66582;SHT31;53438;48.898;2.308;2023-07-28T15:37:23;22.10;86.72
66582;SHT31;53438;48.898;2.308;2023-07-28T15:39:48;22.06;86.38
66582;SHT31;53438;48.898;2.308;2023-07-28T15:42:13;22.10;86.10
66582;SHT31;53438;48.898;2.308;2023-07-28T15:44:39;22.17;85.72
66582;SHT31;53438;48.898;2.308;2023-07-28T15:47:04;22.21;85.41
66582;SHT31;53438;48.898;2.308;2023-07-28T15:49:30;22.26;85.00
66582;SHT31;53438;48.898;2.308;2023-07-28T15:51:55;22.30;84.96
66582;SHT31;53438;48.898;2.308;2023-07-28T15:54:20;22.37;85.07
66582;SHT31;53438;48.898;2.308;2023-07-28T15:56:46;22.37;84.64
66582;SHT31;53438;48.898;2.308;2023-07-28T15:59:11;22.40;85.19
66582;SHT31;53438;48.898;2.308;2023-07-28T16:01:37;22.43;85.33
66582;SHT31;53438;48.898;2.308;2023-07-28T16:04:02;22.43;85.88
66582;SHT31;53438;48.898;2.308;2023-07-28T16:06:28;22.34;87.40
66582;SHT31;53438;48.898;2.308;2023-07-28T16:08:53;22.40;87.32
66582;SHT31;53438;48.898;2.308;2023-07-28T16:11:18;22.36;87.27
66582;SHT31;53438;48.898;2.308;2023-07-28T16:13:46;22.40;87.10
66582;SHT31;53438;48.898;2.308;2023-07-28T16:16:11;22.39;87.06
66582;SHT31;53438;48.898;2.308;2023-07-28T16:18:37;22.40;87.64
66582;SHT31;53438;48.898;2.308;2023-07-28T16:21:02;22.41;87.53
66582;SHT31;53438;48.898;2.308;2023-07-28T16:23:27;22.33;87.97
66582;SHT31;53438;48.898;2.308;2023-07-28T16:25:53;22.33;87.55
66582;SHT31;53438;48.898;2.308;2023-07-28T16:28:18;22.39;87.49
66582;SHT31;53438;48.898;2.308;2023-07-28T16:30:44;22.43;87.68
66582;SHT31;53438;48.898;2.308;2023-07-28T16:33:09;22.45;87.78
66582;SHT31;53438;48.898;2.308;2023-07-28T16:35:35;22.47;87.72
66582;SHT31;53438;48.898;2.308;2023-07-28T16:38:01;22.45;87.79
66582;SHT31;53438;48.898;2.308;2023-07-28T16:40:27;22.50;87.96
66582;SHT31;53438;48.898;2.308;2023-07-28T16:42:53;22.53;87.31
66582;SHT31;53438;48.898;2.308;2023-07-28T16:45:18;22.51;87.49
66582;SHT31;53438;48.898;2.308;2023-07-28T16:47:43;22.58;87.26
66582;SHT31;53438;48.898;2.308;2023-07-28T16:50:09;22.60;86.86
66582;SHT31;53438;48.898;2.308;2023-07-28T16:52:34;22.60;86.81
66582;SHT31;53438;48.898;2.308;2023-07-28T16:55:01;22.64;87.16
66582;SHT31;53438;48.898;2.308;2023-07-28T16:57:27;22.61;86.79
66582;SHT31;53438;48.898;2.308;2023-07-28T16:59:52;22.54;85.44
66582;SHT31;53438;48.898;2.308;2023-07-28T17:02:18;22.55;86.18
66582;SHT31;53438;48.898;2.308;2023-07-28T17:04:43;22.60;86.36
66582;SHT31;53438;48.898;2.308;2023-07-28T17:07:08;22.65;86.21
66582;SHT31;53438;48.898;2.308;2023-07-28T17:09:34;22.65;85.17
66582;SHT31;53438;48.898;2.308;2023-07-28T17:12:00;22.65;86.16
66582;SHT31;53438;48.898;2.308;2023-07-28T17:14:25;22.68;86.49
66582;SHT31;53438;48.898;2.308;2023-07-28T17:16:51;22.61;85.51
66582;SHT31;53438;48.898;2.308;2023-07-28T17:19:17;22.57;85.22
66582;SHT31;53438;48.898;2.308;2023-07-28T17:21:42;22.58;85.68
66582;SHT31;53438;48.898;2.308;2023-07-28T17:24:08;22.61;84.97
66582;SHT31;53438;48.898;2.308;2023-07-28T17:26:33;22.64;84.89
66582;SHT31;53438;48.898;2.308;2023-07-28T17:28:58;22.68;84.81
66582;SHT31;53438;48.898;2.308;2023-07-28T17:31:24;22.65;84.99
66582;SHT31;53438;48.898;2.308;2023-07-28T17:33:49;22.64;84.15
66582;SHT31;53438;48.898;2.308;2023-07-28T17:36:15;22.63;83.85
66582;SHT31;53438;48.898;2.308;2023-07-28T17:38:40;22.64;84.12
66582;SHT31;53438;48.898;2.308;2023-07-28T17:41:06;22.67;84.42
66582;SHT31;53438;48.898;2.308;2023-07-28T17:43:32;22.67;84.50
66582;SHT31;53438;48.898;2.308;2023-07-28T17:45:57;22.69;84.59
66582;SHT31;53438;48.898;2.308;2023-07-28T17:48:24;22.72;84.85
66582;SHT31;53438;48.898;2.308;2023-07-28T17:50:50;22.74;84.85
66582;SHT31;53438;48.898;2.308;2023-07-28T17:53:16;22.74;84.43
66582;SHT31;53438;48.898;2.308;2023-07-28T17:55:41;22.72;84.80
66582;SHT31;53438;48.898;2.308;2023-07-28T17:58:06;22.72;84.34
66582;SHT31;53438;48.898;2.308;2023-07-28T18:00:32;22.72;84.46
66582;SHT31;53438;48.898;2.308;2023-07-28T18:02:57;22.67;83.03
66582;SHT31;53438;48.898;2.308;2023-07-28T18:05:23;22.71;83.75
66582;SHT31;53438;48.898;2.308;2023-07-28T18:07:48;22.71;83.77
66582;SHT31;53438;48.898;2.308;2023-07-28T18:10:13;22.69;83.46
66582;SHT31;53438;48.898;2.308;2023-07-28T18:12:39;22.68;83.77
66582;SHT31;53438;48.898;2.308;2023-07-28T18:15:06;22.67;83.38
66582;SHT31;53438;48.898;2.308;2023-07-28T18:17:31;22.68;83.16
66582;SHT31;53438;48.898;2.308;2023-07-28T18:19:57;22.71;82.94
66582;SHT31;53438;48.898;2.308;2023-07-28T18:22:22;22.69;82.70
66582;SHT31;53438;48.898;2.308;2023-07-28T18:24:48;22.63;83.90
66582;SHT31;53438;48.898;2.308;2023-07-28T18:27:13;22.61;83.22
66582;SHT31;53438;48.898;2.308;2023-07-28T18:29:39;22.64;83.03